Terminal Aerodrome Forecast
Issued by NWS Wilmington, NC

Home | Current Version | Previous Version | Text Only | Print | Product List | Glossary On
Versions: 1 2 3 4 5 6 7 8 9 10 11 12 13 14 15 16
000
FTUS42 KILM 282323
TAFILM
TAF
KILM 282323Z 2900/2924 11007KT P6SM SCT025 SCT160 BKN250
     FM290200 06004KT P6SM SCT020 SCT070 SCT150
      TEMPO 2910/2913 BKN015
     FM291300 08008KT P6SM SCT020 SCT070 SCT140=

USA.gov is the U.S. government's official web portal to all federal, state and local government web resources and services.